Main page
METAR-TAF:

METAR-TAF

Airports :

Ngaoundéré Airport

Ngaoundéré, Cameroon

latitude: 07-21N, longitude: 013-34E, elevation: 1114 m

Current weather observation

The report was made 2 hours and 44 minutes ago, at 17:00 UTC
Wind 3 kt from the North
Temperature 29°C
Humidity 27%
Pressure 1013 hPa
Visibility 10 km or more
Few clouds at a height of 4000 ft

METAR: FKKN 291700Z 01003KT 9999 FEW040 29/08 Q1013

Time: 20:44 (19:44 UTC)


TAF: missing

Weather observations and forecasts of more than 4000 airports (METAR and TAF reports).

The available stations are represented by yellow and red dots on the map.

Hover mouse over dot to see the name of the station.

Then click to see weather observations and forecasts.

To change the map : click on the green buttons with a black cross to zoom in, on the green button with a dash to zoom out, or on the green arrows for adjacent maps.


METAR-TAF: